sensor_id;sensor_type;location;lat;lon;timestamp;temperature;humidity
60293;DHT22;52402;52.670;6.750;2022-10-17T00:00:48;12.80;99.90
60293;DHT22;52402;52.670;6.750;2022-10-17T00:03:14;12.80;99.90
60293;DHT22;52402;52.670;6.750;2022-10-17T00:05:42;12.80;99.90
60293;DHT22;52402;52.670;6.750;2022-10-17T00:08:08;12.80;99.90
60293;DHT22;52402;52.670;6.750;2022-10-17T00:10:35;12.70;99.90
60293;DHT22;52402;52.670;6.750;2022-10-17T00:13:01;12.70;99.90
60293;DHT22;52402;52.670;6.750;2022-10-17T00:15:27;12.70;99.90
60293;DHT22;52402;52.670;6.750;2022-10-17T00:17:52;12.60;99.90
60293;DHT22;52402;52.670;6.750;2022-10-17T00:20:18;12.60;99.90
60293;DHT22;52402;52.670;6.750;2022-10-17T00:22:44;12.60;99.90
60293;DHT22;52402;52.670;6.750;2022-10-17T00:25:10;12.50;99.90
60293;DHT22;52402;52.670;6.750;2022-10-17T00:27:37;12.50;99.90
60293;DHT22;52402;52.670;6.750;2022-10-17T00:30:05;12.50;99.90
60293;DHT22;52402;52.670;6.750;2022-10-17T00:32:32;12.40;99.90
60293;DHT22;52402;52.670;6.750;2022-10-17T00:34:58;12.40;99.90
60293;DHT22;52402;52.670;6.750;2022-10-17T00:37:23;12.40;99.90
60293;DHT22;52402;52.670;6.750;2022-10-17T00:39:50;12.40;99.90
60293;DHT22;52402;52.670;6.750;2022-10-17T00:42:15;12.40;99.90
60293;DHT22;52402;52.670;6.750;2022-10-17T00:47:10;12.40;99.90
60293;DHT22;52402;52.670;6.750;2022-10-17T00:49:38;12.40;99.90
60293;DHT22;52402;52.670;6.750;2022-10-17T00:52:16;12.50;99.90
60293;DHT22;52402;52.670;6.750;2022-10-17T00:54:47;12.50;99.90
60293;DHT22;52402;52.670;6.750;2022-10-17T00:57:14;12.50;99.90
60293;DHT22;52402;52.670;6.750;2022-10-17T00:59:41;12.50;99.90
60293;DHT22;52402;52.670;6.750;2022-10-17T01:02:14;12.40;99.90
60293;DHT22;52402;52.670;6.750;2022-10-17T01:04:43;12.40;99.90
60293;DHT22;52402;52.670;6.750;2022-10-17T01:07:09;12.40;99.90
60293;DHT22;52402;52.670;6.750;2022-10-17T01:09:35;12.30;99.90
60293;DHT22;52402;52.670;6.750;2022-10-17T01:12:23;12.30;99.90
60293;DHT22;52402;52.670;6.750;2022-10-17T01:15:04;12.30;99.90
60293;DHT22;52402;52.670;6.750;2022-10-17T01:18:10;12.20;99.90
60293;DHT22;52402;52.670;6.750;2022-10-17T01:23:49;12.10;99.90
60293;DHT22;52402;52.670;6.750;2022-10-17T01:26:30;12.10;99.90
60293;DHT22;52402;52.670;6.750;2022-10-17T01:29:41;12.00;99.90
60293;DHT22;52402;52.670;6.750;2022-10-17T01:35:29;12.00;99.90
60293;DHT22;52402;52.670;6.750;2022-10-17T01:38:07;11.90;99.90
60293;DHT22;52402;52.670;6.750;2022-10-17T01:40:38;11.90;99.90
60293;DHT22;52402;52.670;6.750;2022-10-17T01:43:28;11.90;99.90
60293;DHT22;52402;52.670;6.750;2022-10-17T01:45:58;11.80;99.90
60293;DHT22;52402;52.670;6.750;2022-10-17T01:48:33;11.80;99.90
60293;DHT22;52402;52.670;6.750;2022-10-17T01:51:25;11.80;99.90
60293;DHT22;52402;52.670;6.750;2022-10-17T01:56:41;11.80;99.90
60293;DHT22;52402;52.670;6.750;2022-10-17T01:59:23;11.80;99.90
60293;DHT22;52402;52.670;6.750;2022-10-17T02:01:52;11.80;99.90
60293;DHT22;52402;52.670;6.750;2022-10-17T02:04:18;11.80;99.90
60293;DHT22;52402;52.670;6.750;2022-10-17T02:06:44;11.80;99.90
60293;DHT22;52402;52.670;6.750;2022-10-17T02:09:21;11.80;99.90
60293;DHT22;52402;52.670;6.750;2022-10-17T02:15:00;11.80;99.90
60293;DHT22;52402;52.670;6.750;2022-10-17T02:17:38;11.90;99.90
60293;DHT22;52402;52.670;6.750;2022-10-17T02:20:19;12.00;99.90
60293;DHT22;52402;52.670;6.750;2022-10-17T02:22:53;12.00;99.90
60293;DHT22;52402;52.670;6.750;2022-10-17T02:25:52;12.00;99.90
60293;DHT22;52402;52.670;6.750;2022-10-17T02:31:24;12.10;99.90
60293;DHT22;52402;52.670;6.750;2022-10-17T02:33:57;12.10;99.90
60293;DHT22;52402;52.670;6.750;2022-10-17T02:36:29;12.10;99.90
60293;DHT22;52402;52.670;6.750;2022-10-17T02:38:57;12.20;99.90
60293;DHT22;52402;52.670;6.750;2022-10-17T02:41:24;12.20;99.90
60293;DHT22;52402;52.670;6.750;2022-10-17T02:43:51;12.30;99.90
60293;DHT22;52402;52.670;6.750;2022-10-17T02:46:21;12.30;99.90
60293;DHT22;52402;52.670;6.750;2022-10-17T02:48:52;12.30;99.90
60293;DHT22;52402;52.670;6.750;2022-10-17T02:51:35;12.30;99.90
60293;DHT22;52402;52.670;6.750;2022-10-17T02:56:53;12.40;99.90
60293;DHT22;52402;52.670;6.750;2022-10-17T02:59:21;12.40;99.90
60293;DHT22;52402;52.670;6.750;2022-10-17T03:01:49;12.40;99.90
60293;DHT22;52402;52.670;6.750;2022-10-17T03:04:16;12.40;99.90
60293;DHT22;52402;52.670;6.750;2022-10-17T03:06:44;12.50;99.90
60293;DHT22;52402;52.670;6.750;2022-10-17T03:09:10;12.50;99.90
60293;DHT22;52402;52.670;6.750;2022-10-17T03:11:36;12.50;99.90
60293;DHT22;52402;52.670;6.750;2022-10-17T03:14:02;12.50;99.90
60293;DHT22;52402;52.670;6.750;2022-10-17T03:16:27;12.50;99.90
60293;DHT22;52402;52.670;6.750;2022-10-17T03:18:53;12.50;99.90
60293;DHT22;52402;52.670;6.750;2022-10-17T03:21:19;12.50;99.90
60293;DHT22;52402;52.670;6.750;2022-10-17T03:23:44;12.50;99.90
60293;DHT22;52402;52.670;6.750;2022-10-17T03:26:10;12.40;99.90
60293;DHT22;52402;52.670;6.750;2022-10-17T03:28:36;12.50;99.90
60293;DHT22;52402;52.670;6.750;2022-10-17T03:31:09;12.40;99.90
60293;DHT22;52402;52.670;6.750;2022-10-17T03:33:35;12.40;99.90
60293;DHT22;52402;52.670;6.750;2022-10-17T03:36:10;12.40;99.90
60293;DHT22;52402;52.670;6.750;2022-10-17T03:38:36;12.50;99.90
60293;DHT22;52402;52.670;6.750;2022-10-17T03:41:03;12.40;99.90
60293;DHT22;52402;52.670;6.750;2022-10-17T03:43:29;12.40;99.90
60293;DHT22;52402;52.670;6.750;2022-10-17T03:45:56;12.40;99.90
60293;DHT22;52402;52.670;6.750;2022-10-17T03:48:22;12.40;99.90
60293;DHT22;52402;52.670;6.750;2022-10-17T03:50:48;12.40;99.90
60293;DHT22;52402;52.670;6.750;2022-10-17T03:53:13;12.40;99.90
60293;DHT22;52402;52.670;6.750;2022-10-17T03:55:39;12.40;99.90
60293;DHT22;52402;52.670;6.750;2022-10-17T03:58:04;12.40;99.90
60293;DHT22;52402;52.670;6.750;2022-10-17T04:00:30;12.40;99.90
60293;DHT22;52402;52.670;6.750;2022-10-17T04:02:56;12.40;99.90
60293;DHT22;52402;52.670;6.750;2022-10-17T04:05:23;12.40;99.90
60293;DHT22;52402;52.670;6.750;2022-10-17T04:07:48;12.40;99.90
60293;DHT22;52402;52.670;6.750;2022-10-17T04:10:14;12.40;99.90
60293;DHT22;52402;52.670;6.750;2022-10-17T04:12:40;12.40;99.90
60293;DHT22;52402;52.670;6.750;2022-10-17T04:15:06;12.40;99.90
60293;DHT22;52402;52.670;6.750;2022-10-17T04:17:32;12.40;99.90
60293;DHT22;52402;52.670;6.750;2022-10-17T04:19:57;12.40;99.90
60293;DHT22;52402;52.670;6.750;2022-10-17T04:22:23;12.40;99.90
60293;DHT22;52402;52.670;6.750;2022-10-17T04:24:48;12.30;99.90
60293;DHT22;52402;52.670;6.750;2022-10-17T04:27:14;12.30;99.90
60293;DHT22;52402;52.670;6.750;2022-10-17T04:29:40;12.40;99.90
60293;DHT22;52402;52.670;6.750;2022-10-17T04:32:06;12.40;99.90
60293;DHT22;52402;52.670;6.750;2022-10-17T04:34:31;12.40;99.90
60293;DHT22;52402;52.670;6.750;2022-10-17T04:36:57;12.40;99.90
60293;DHT22;52402;52.670;6.750;2022-10-17T04:39:22;12.40;99.90
60293;DHT22;52402;52.670;6.750;2022-10-17T04:41:48;12.40;99.90
60293;DHT22;52402;52.670;6.750;2022-10-17T04:44:13;12.50;99.90
60293;DHT22;52402;52.670;6.750;2022-10-17T04:46:39;12.50;99.90
60293;DHT22;52402;52.670;6.750;2022-10-17T04:49:05;12.50;99.90
60293;DHT22;52402;52.670;6.750;2022-10-17T04:51:30;12.50;99.90
60293;DHT22;52402;52.670;6.750;2022-10-17T04:53:56;12.60;99.90
60293;DHT22;52402;52.670;6.750;2022-10-17T04:56:23;12.60;99.90
60293;DHT22;52402;52.670;6.750;2022-10-17T04:58:49;12.60;99.90
60293;DHT22;52402;52.670;6.750;2022-10-17T05:01:17;12.60;99.90
60293;DHT22;52402;52.670;6.750;2022-10-17T05:03:44;12.60;99.90
60293;DHT22;52402;52.670;6.750;2022-10-17T05:06:12;12.60;99.90
60293;DHT22;52402;52.670;6.750;2022-10-17T05:08:38;12.60;99.90
60293;DHT22;52402;52.670;6.750;2022-10-17T05:11:04;12.60;99.90
60293;DHT22;52402;52.670;6.750;2022-10-17T05:13:31;12.70;99.90
60293;DHT22;52402;52.670;6.750;2022-10-17T05:15:58;12.70;99.90
60293;DHT22;52402;52.670;6.750;2022-10-17T05:18:24;12.70;99.90
60293;DHT22;52402;52.670;6.750;2022-10-17T05:20:50;12.80;99.90
60293;DHT22;52402;52.670;6.750;2022-10-17T05:23:15;12.80;99.90
60293;DHT22;52402;52.670;6.750;2022-10-17T05:25:41;12.80;99.90
60293;DHT22;52402;52.670;6.750;2022-10-17T05:28:07;12.90;99.90
60293;DHT22;52402;52.670;6.750;2022-10-17T05:30:34;12.90;99.90
60293;DHT22;52402;52.670;6.750;2022-10-17T05:33:00;12.90;99.90
60293;DHT22;52402;52.670;6.750;2022-10-17T05:35:25;12.90;99.90
60293;DHT22;52402;52.670;6.750;2022-10-17T05:37:51;13.00;99.90
60293;DHT22;52402;52.670;6.750;2022-10-17T05:40:17;13.00;99.90
60293;DHT22;52402;52.670;6.750;2022-10-17T05:42:46;13.10;99.90
60293;DHT22;52402;52.670;6.750;2022-10-17T05:45:13;13.10;99.90
60293;DHT22;52402;52.670;6.750;2022-10-17T05:47:39;13.10;99.90
60293;DHT22;52402;52.670;6.750;2022-10-17T05:50:05;13.20;99.90
60293;DHT22;52402;52.670;6.750;2022-10-17T05:52:31;13.30;99.90
60293;DHT22;52402;52.670;6.750;2022-10-17T05:54:56;13.30;99.90
60293;DHT22;52402;52.670;6.750;2022-10-17T05:57:24;13.40;99.90
60293;DHT22;52402;52.670;6.750;2022-10-17T05:59:50;13.50;99.90
60293;DHT22;52402;52.670;6.750;2022-10-17T06:02:15;13.70;99.90
60293;DHT22;52402;52.670;6.750;2022-10-17T06:04:41;13.80;99.90
60293;DHT22;52402;52.670;6.750;2022-10-17T06:07:10;14.00;99.90
60293;DHT22;52402;52.670;6.750;2022-10-17T06:09:36;14.10;99.90
60293;DHT22;52402;52.670;6.750;2022-10-17T06:12:02;14.20;99.90
60293;DHT22;52402;52.670;6.750;2022-10-17T06:14:27;14.30;99.90
60293;DHT22;52402;52.670;6.750;2022-10-17T06:16:53;14.40;99.90
60293;DHT22;52402;52.670;6.750;2022-10-17T06:19:19;14.40;99.90
60293;DHT22;52402;52.670;6.750;2022-10-17T06:21:44;14.50;99.90
60293;DHT22;52402;52.670;6.750;2022-10-17T06:24:10;14.60;99.90
60293;DHT22;52402;52.670;6.750;2022-10-17T06:26:36;14.70;99.90
60293;DHT22;52402;52.670;6.750;2022-10-17T06:29:02;14.80;99.90
60293;DHT22;52402;52.670;6.750;2022-10-17T06:31:27;14.90;99.90
60293;DHT22;52402;52.670;6.750;2022-10-17T06:33:53;14.90;99.90
60293;DHT22;52402;52.670;6.750;2022-10-17T06:36:18;15.00;99.90
60293;DHT22;52402;52.670;6.750;2022-10-17T06:38:44;15.00;99.90
60293;DHT22;52402;52.670;6.750;2022-10-17T06:41:12;15.10;99.90
60293;DHT22;52402;52.670;6.750;2022-10-17T06:43:42;15.10;99.90
60293;DHT22;52402;52.670;6.750;2022-10-17T06:46:11;15.10;99.90
60293;DHT22;52402;52.670;6.750;2022-10-17T06:48:37;15.20;99.90
60293;DHT22;52402;52.670;6.750;2022-10-17T06:51:04;15.20;99.90
60293;DHT22;52402;52.670;6.750;2022-10-17T06:53:32;15.30;99.90
60293;DHT22;52402;52.670;6.750;2022-10-17T06:55:57;15.30;99.90
60293;DHT22;52402;52.670;6.750;2022-10-17T06:58:32;15.30;99.90
60293;DHT22;52402;52.670;6.750;2022-10-17T07:01:07;15.30;99.90
60293;DHT22;52402;52.670;6.750;2022-10-17T07:03:33;15.40;99.90
60293;DHT22;52402;52.670;6.750;2022-10-17T07:05:59;15.40;99.90
60293;DHT22;52402;52.670;6.750;2022-10-17T07:08:25;15.40;99.90
60293;DHT22;52402;52.670;6.750;2022-10-17T07:10:51;15.50;99.90
60293;DHT22;52402;52.670;6.750;2022-10-17T07:13:18;15.50;99.90
60293;DHT22;52402;52.670;6.750;2022-10-17T07:15:43;15.50;99.90
60293;DHT22;52402;52.670;6.750;2022-10-17T07:18:09;15.50;99.90
60293;DHT22;52402;52.670;6.750;2022-10-17T07:20:35;15.60;99.90
60293;DHT22;52402;52.670;6.750;2022-10-17T07:23:01;15.60;99.90
60293;DHT22;52402;52.670;6.750;2022-10-17T07:25:27;15.70;99.90
60293;DHT22;52402;52.670;6.750;2022-10-17T07:27:53;15.80;99.90
60293;DHT22;52402;52.670;6.750;2022-10-17T07:30:19;15.90;99.90
60293;DHT22;52402;52.670;6.750;2022-10-17T07:32:45;16.00;99.90
60293;DHT22;52402;52.670;6.750;2022-10-17T07:35:11;16.10;99.90
60293;DHT22;52402;52.670;6.750;2022-10-17T07:37:37;16.20;99.90
60293;DHT22;52402;52.670;6.750;2022-10-17T07:40:05;16.30;99.90
60293;DHT22;52402;52.670;6.750;2022-10-17T07:42:32;16.30;99.90
60293;DHT22;52402;52.670;6.750;2022-10-17T07:44:58;16.40;99.90
60293;DHT22;52402;52.670;6.750;2022-10-17T07:47:23;16.40;99.90
60293;DHT22;52402;52.670;6.750;2022-10-17T07:49:49;16.50;99.90
60293;DHT22;52402;52.670;6.750;2022-10-17T07:52:16;16.50;99.90
60293;DHT22;52402;52.670;6.750;2022-10-17T07:54:42;16.60;99.90
60293;DHT22;52402;52.670;6.750;2022-10-17T07:57:08;16.60;99.90
60293;DHT22;52402;52.670;6.750;2022-10-17T07:59:34;16.60;99.90
60293;DHT22;52402;52.670;6.750;2022-10-17T08:02:01;16.60;99.90
60293;DHT22;52402;52.670;6.750;2022-10-17T08:04:27;16.60;99.90
60293;DHT22;52402;52.670;6.750;2022-10-17T08:06:53;16.60;99.90
60293;DHT22;52402;52.670;6.750;2022-10-17T08:09:18;16.60;99.90
60293;DHT22;52402;52.670;6.750;2022-10-17T08:11:44;16.60;99.90
60293;DHT22;52402;52.670;6.750;2022-10-17T08:14:11;16.70;99.90
60293;DHT22;52402;52.670;6.750;2022-10-17T08:16:36;16.70;99.90
60293;DHT22;52402;52.670;6.750;2022-10-17T08:19:02;16.70;99.90
60293;DHT22;52402;52.670;6.750;2022-10-17T08:21:28;16.70;99.90
60293;DHT22;52402;52.670;6.750;2022-10-17T08:23:54;16.80;99.90
60293;DHT22;52402;52.670;6.750;2022-10-17T08:26:20;16.80;99.90
60293;DHT22;52402;52.670;6.750;2022-10-17T08:28:46;16.80;99.90
60293;DHT22;52402;52.670;6.750;2022-10-17T08:31:17;16.80;99.90
60293;DHT22;52402;52.670;6.750;2022-10-17T08:33:43;16.80;99.90
60293;DHT22;52402;52.670;6.750;2022-10-17T08:36:11;16.80;99.90
60293;DHT22;52402;52.670;6.750;2022-10-17T08:38:37;16.80;99.90
60293;DHT22;52402;52.670;6.750;2022-10-17T08:41:13;16.80;99.90
60293;DHT22;52402;52.670;6.750;2022-10-17T08:44:35;16.80;99.90
60293;DHT22;52402;52.670;6.750;2022-10-17T08:46:39;16.90;99.90
60293;DHT22;52402;52.670;6.750;2022-10-17T08:49:11;16.90;99.90
60293;DHT22;52402;52.670;6.750;2022-10-17T08:51:48;16.80;99.90
60293;DHT22;52402;52.670;6.750;2022-10-17T08:54:21;16.90;99.90
60293;DHT22;52402;52.670;6.750;2022-10-17T08:56:50;17.00;99.90
60293;DHT22;52402;52.670;6.750;2022-10-17T08:59:24;17.00;99.90
60293;DHT22;52402;52.670;6.750;2022-10-17T09:04:56;17.00;99.90
60293;DHT22;52402;52.670;6.750;2022-10-17T09:07:55;17.00;99.90
60293;DHT22;52402;52.670;6.750;2022-10-17T09:13:16;17.10;99.90
60293;DHT22;52402;52.670;6.750;2022-10-17T09:15:59;17.10;99.90
60293;DHT22;52402;52.670;6.750;2022-10-17T09:18:30;17.10;99.90
60293;DHT22;52402;52.670;6.750;2022-10-17T09:21:07;17.10;99.90
60293;DHT22;52402;52.670;6.750;2022-10-17T09:23:52;17.20;99.90
60293;DHT22;52402;52.670;6.750;2022-10-17T09:26:19;17.30;99.90
60293;DHT22;52402;52.670;6.750;2022-10-17T09:28:55;17.30;99.90
60293;DHT22;52402;52.670;6.750;2022-10-17T09:31:25;17.30;99.90
60293;DHT22;52402;52.670;6.750;2022-10-17T09:33:58;17.40;99.90
60293;DHT22;52402;52.670;6.750;2022-10-17T09:36:38;17.40;99.90
60293;DHT22;52402;52.670;6.750;2022-10-17T09:39:08;17.40;99.90
60293;DHT22;52402;52.670;6.750;2022-10-17T09:41:39;17.50;99.90
60293;DHT22;52402;52.670;6.750;2022-10-17T09:44:23;17.50;99.90
60293;DHT22;52402;52.670;6.750;2022-10-17T09:49:48;17.50;99.90
60293;DHT22;52402;52.670;6.750;2022-10-17T09:54:50;17.40;99.90
60293;DHT22;52402;52.670;6.750;2022-10-17T09:57:18;17.40;99.90
60293;DHT22;52402;52.670;6.750;2022-10-17T09:59:56;17.40;99.90
60293;DHT22;52402;52.670;6.750;2022-10-17T10:02:24;17.30;99.90
60293;DHT22;52402;52.670;6.750;2022-10-17T10:04:54;17.20;99.90
60293;DHT22;52402;52.670;6.750;2022-10-17T10:07:21;17.10;99.90
60293;DHT22;52402;52.670;6.750;2022-10-17T10:09:48;17.00;99.90
60293;DHT22;52402;52.670;6.750;2022-10-17T10:12:36;17.00;99.90
60293;DHT22;52402;52.670;6.750;2022-10-17T10:15:33;16.90;99.90
60293;DHT22;52402;52.670;6.750;2022-10-17T10:17:59;16.90;99.90
60293;DHT22;52402;52.670;6.750;2022-10-17T10:20:31;16.80;99.90
60293;DHT22;52402;52.670;6.750;2022-10-17T10:23:05;16.80;99.90
60293;DHT22;52402;52.670;6.750;2022-10-17T10:25:31;16.80;99.90
60293;DHT22;52402;52.670;6.750;2022-10-17T10:27:56;16.70;99.90
60293;DHT22;52402;52.670;6.750;2022-10-17T10:30:27;16.60;99.90
60293;DHT22;52402;52.670;6.750;2022-10-17T10:32:53;16.60;99.90
60293;DHT22;52402;52.670;6.750;2022-10-17T10:35:33;16.60;99.90
60293;DHT22;52402;52.670;6.750;2022-10-17T10:38:01;16.50;99.90
60293;DHT22;52402;52.670;6.750;2022-10-17T10:40:35;16.50;99.90
60293;DHT22;52402;52.670;6.750;2022-10-17T10:43:03;16.50;99.90
60293;DHT22;52402;52.670;6.750;2022-10-17T10:48:19;16.50;99.90
60293;DHT22;52402;52.670;6.750;2022-10-17T10:50:53;16.40;99.90
60293;DHT22;52402;52.670;6.750;2022-10-17T10:53:45;16.40;99.90
60293;DHT22;52402;52.670;6.750;2022-10-17T11:01:44;16.40;99.90
60293;DHT22;52402;52.670;6.750;2022-10-17T11:06:46;16.40;99.90
60293;DHT22;52402;52.670;6.750;2022-10-17T11:09:45;16.40;99.90
60293;DHT22;52402;52.670;6.750;2022-10-17T11:12:27;16.50;99.90
60293;DHT22;52402;52.670;6.750;2022-10-17T11:17:58;16.50;99.90
60293;DHT22;52402;52.670;6.750;2022-10-17T11:23:19;16.60;99.90
60293;DHT22;52402;52.670;6.750;2022-10-17T11:25:50;16.60;99.90
60293;DHT22;52402;52.670;6.750;2022-10-17T11:28:17;16.50;99.90
60293;DHT22;52402;52.670;6.750;2022-10-17T11:36:11;16.60;99.90
60293;DHT22;52402;52.670;6.750;2022-10-17T11:39:28;16.70;99.90
60293;DHT22;52402;52.670;6.750;2022-10-17T11:41:45;16.70;99.90
60293;DHT22;52402;52.670;6.750;2022-10-17T11:44:25;16.70;99.90
60293;DHT22;52402;52.670;6.750;2022-10-17T11:46:57;16.70;99.90
60293;DHT22;52402;52.670;6.750;2022-10-17T11:49:29;16.70;99.90
60293;DHT22;52402;52.670;6.750;2022-10-17T11:54:49;16.70;99.90
60293;DHT22;52402;52.670;6.750;2022-10-17T11:57:37;16.70;99.90
60293;DHT22;52402;52.670;6.750;2022-10-17T12:00:20;16.60;99.90
60293;DHT22;52402;52.670;6.750;2022-10-17T12:03:10;16.60;99.90
60293;DHT22;52402;52.670;6.750;2022-10-17T12:05:48;16.60;99.90
60293;DHT22;52402;52.670;6.750;2022-10-17T12:08:35;16.60;99.90
60293;DHT22;52402;52.670;6.750;2022-10-17T12:21:56;16.50;99.90
60293;DHT22;52402;52.670;6.750;2022-10-17T12:27:31;16.50;99.90
60293;DHT22;52402;52.670;6.750;2022-10-17T12:32:36;16.60;99.90
60293;DHT22;52402;52.670;6.750;2022-10-17T12:35:02;16.60;99.90
60293;DHT22;52402;52.670;6.750;2022-10-17T12:45:47;16.90;99.90
60293;DHT22;52402;52.670;6.750;2022-10-17T12:56:16;17.10;99.90
60293;DHT22;52402;52.670;6.750;2022-10-17T12:58:45;17.10;99.90
60293;DHT22;52402;52.670;6.750;2022-10-17T13:01:25;17.00;99.90
60293;DHT22;52402;52.670;6.750;2022-10-17T13:03:52;17.10;99.90
60293;DHT22;52402;52.670;6.750;2022-10-17T13:06:30;17.00;99.90
60293;DHT22;52402;52.670;6.750;2022-10-17T13:09:01;17.00;99.90
60293;DHT22;52402;52.670;6.750;2022-10-17T13:11:29;17.00;99.90
60293;DHT22;52402;52.670;6.750;2022-10-17T13:13:59;17.00;99.90
60293;DHT22;52402;52.670;6.750;2022-10-17T13:16:31;17.00;99.90
60293;DHT22;52402;52.670;6.750;2022-10-17T13:18:57;17.00;99.90
60293;DHT22;52402;52.670;6.750;2022-10-17T13:21:24;17.00;99.90
60293;DHT22;52402;52.670;6.750;2022-10-17T13:23:49;17.00;99.90
60293;DHT22;52402;52.670;6.750;2022-10-17T13:26:26;17.10;99.90
60293;DHT22;52402;52.670;6.750;2022-10-17T13:29:02;17.10;99.90
60293;DHT22;52402;52.670;6.750;2022-10-17T13:31:37;17.10;99.90
60293;DHT22;52402;52.670;6.750;2022-10-17T13:34:05;17.10;99.90
60293;DHT22;52402;52.670;6.750;2022-10-17T13:36:32;17.10;99.90
60293;DHT22;52402;52.670;6.750;2022-10-17T13:39:03;17.10;99.90
60293;DHT22;52402;52.670;6.750;2022-10-17T13:41:31;17.10;99.90
60293;DHT22;52402;52.670;6.750;2022-10-17T13:44:00;17.10;99.90
60293;DHT22;52402;52.670;6.750;2022-10-17T13:46:29;17.10;99.90
60293;DHT22;52402;52.670;6.750;2022-10-17T13:48:57;17.10;99.90
60293;DHT22;52402;52.670;6.750;2022-10-17T13:51:25;17.00;99.90
60293;DHT22;52402;52.670;6.750;2022-10-17T13:53:51;17.00;99.90
60293;DHT22;52402;52.670;6.750;2022-10-17T13:56:22;17.00;99.90
60293;DHT22;52402;52.670;6.750;2022-10-17T13:58:56;17.00;99.90
60293;DHT22;52402;52.670;6.750;2022-10-17T14:01:25;17.00;99.90
60293;DHT22;52402;52.670;6.750;2022-10-17T14:03:51;17.00;99.90
60293;DHT22;52402;52.670;6.750;2022-10-17T14:06:21;17.00;99.90
60293;DHT22;52402;52.670;6.750;2022-10-17T14:09:03;16.90;99.90
60293;DHT22;52402;52.670;6.750;2022-10-17T14:11:34;16.90;99.90
60293;DHT22;52402;52.670;6.750;2022-10-17T14:14:01;16.90;99.90
60293;DHT22;52402;52.670;6.750;2022-10-17T14:16:35;17.00;99.90
60293;DHT22;52402;52.670;6.750;2022-10-17T14:19:01;17.00;99.90
60293;DHT22;52402;52.670;6.750;2022-10-17T14:21:28;17.00;99.90
60293;DHT22;52402;52.670;6.750;2022-10-17T14:24:21;16.90;99.90
60293;DHT22;52402;52.670;6.750;2022-10-17T14:26:56;16.90;99.90
60293;DHT22;52402;52.670;6.750;2022-10-17T14:29:26;16.80;99.90
60293;DHT22;52402;52.670;6.750;2022-10-17T14:32:06;16.70;99.90
60293;DHT22;52402;52.670;6.750;2022-10-17T14:34:36;16.50;99.90
60293;DHT22;52402;52.670;6.750;2022-10-17T14:37:37;16.40;99.90
60293;DHT22;52402;52.670;6.750;2022-10-17T14:40:05;16.30;99.90
60293;DHT22;52402;52.670;6.750;2022-10-17T14:42:31;16.10;99.90
60293;DHT22;52402;52.670;6.750;2022-10-17T14:45:07;16.10;99.90
60293;DHT22;52402;52.670;6.750;2022-10-17T14:47:33;16.00;99.90
60293;DHT22;52402;52.670;6.750;2022-10-17T14:50:29;15.90;99.90
60293;DHT22;52402;52.670;6.750;2022-10-17T14:53:20;15.80;99.90
60293;DHT22;52402;52.670;6.750;2022-10-17T14:55:58;15.70;99.90
60293;DHT22;52402;52.670;6.750;2022-10-17T14:58:26;15.70;99.90
60293;DHT22;52402;52.670;6.750;2022-10-17T15:00:52;15.60;99.90
60293;DHT22;52402;52.670;6.750;2022-10-17T15:03:18;15.60;99.90
60293;DHT22;52402;52.670;6.750;2022-10-17T15:05:51;15.60;99.90
60293;DHT22;52402;52.670;6.750;2022-10-17T15:08:18;15.60;99.90
60293;DHT22;52402;52.670;6.750;2022-10-17T15:10:45;15.50;99.90
60293;DHT22;52402;52.670;6.750;2022-10-17T15:13:11;15.50;99.90
60293;DHT22;52402;52.670;6.750;2022-10-17T15:15:38;15.60;99.90
60293;DHT22;52402;52.670;6.750;2022-10-17T15:18:05;15.50;99.90
60293;DHT22;52402;52.670;6.750;2022-10-17T15:20:32;15.50;99.90
60293;DHT22;52402;52.670;6.750;2022-10-17T15:23:00;15.60;99.90
60293;DHT22;52402;52.670;6.750;2022-10-17T15:25:27;15.60;99.90
60293;DHT22;52402;52.670;6.750;2022-10-17T15:27:53;15.60;99.90
60293;DHT22;52402;52.670;6.750;2022-10-17T15:30:27;15.60;99.90
60293;DHT22;52402;52.670;6.750;2022-10-17T15:32:53;15.70;99.90
60293;DHT22;52402;52.670;6.750;2022-10-17T15:35:19;15.70;99.90
60293;DHT22;52402;52.670;6.750;2022-10-17T15:37:46;15.70;99.90
60293;DHT22;52402;52.670;6.750;2022-10-17T15:40:17;15.60;99.90
60293;DHT22;52402;52.670;6.750;2022-10-17T15:42:43;15.70;99.90
60293;DHT22;52402;52.670;6.750;2022-10-17T15:45:11;15.70;99.90
60293;DHT22;52402;52.670;6.750;2022-10-17T15:47:37;15.70;99.90
60293;DHT22;52402;52.670;6.750;2022-10-17T15:50:04;15.70;99.90
60293;DHT22;52402;52.670;6.750;2022-10-17T15:52:31;15.70;99.90
60293;DHT22;52402;52.670;6.750;2022-10-17T15:54:56;15.70;99.90
60293;DHT22;52402;52.670;6.750;2022-10-17T15:57:25;15.70;99.90
60293;DHT22;52402;52.670;6.750;2022-10-17T15:59:52;15.60;99.90
60293;DHT22;52402;52.670;6.750;2022-10-17T16:02:20;15.60;99.90
60293;DHT22;52402;52.670;6.750;2022-10-17T16:04:47;15.60;99.90
60293;DHT22;52402;52.670;6.750;2022-10-17T16:07:13;15.60;99.90
60293;DHT22;52402;52.670;6.750;2022-10-17T16:09:39;15.50;99.90
60293;DHT22;52402;52.670;6.750;2022-10-17T16:12:08;15.50;99.90
60293;DHT22;52402;52.670;6.750;2022-10-17T16:14:35;15.40;99.90
60293;DHT22;52402;52.670;6.750;2022-10-17T16:17:00;15.30;99.90
60293;DHT22;52402;52.670;6.750;2022-10-17T16:19:26;15.30;99.90
60293;DHT22;52402;52.670;6.750;2022-10-17T16:21:55;15.30;99.90
60293;DHT22;52402;52.670;6.750;2022-10-17T16:24:21;15.20;99.90
60293;DHT22;52402;52.670;6.750;2022-10-17T16:26:48;15.20;99.90
60293;DHT22;52402;52.670;6.750;2022-10-17T16:29:16;15.10;99.90
60293;DHT22;52402;52.670;6.750;2022-10-17T16:31:43;15.10;99.90
60293;DHT22;52402;52.670;6.750;2022-10-17T16:34:11;15.10;99.90
60293;DHT22;52402;52.670;6.750;2022-10-17T16:36:39;15.00;99.90
60293;DHT22;52402;52.670;6.750;2022-10-17T16:39:05;15.00;99.90
60293;DHT22;52402;52.670;6.750;2022-10-17T16:41:32;14.90;99.90
60293;DHT22;52402;52.670;6.750;2022-10-17T16:44:00;14.90;99.90
60293;DHT22;52402;52.670;6.750;2022-10-17T16:46:27;14.90;99.90
60293;DHT22;52402;52.670;6.750;2022-10-17T16:48:54;14.80;99.90
60293;DHT22;52402;52.670;6.750;2022-10-17T16:51:20;14.80;99.90
60293;DHT22;52402;52.670;6.750;2022-10-17T16:53:47;14.80;99.90
60293;DHT22;52402;52.670;6.750;2022-10-17T16:56:16;14.70;99.90
60293;DHT22;52402;52.670;6.750;2022-10-17T16:58:42;14.70;99.90
60293;DHT22;52402;52.670;6.750;2022-10-17T17:01:10;14.70;99.90
60293;DHT22;52402;52.670;6.750;2022-10-17T17:03:39;14.60;99.90
60293;DHT22;52402;52.670;6.750;2022-10-17T17:06:05;14.60;99.90
60293;DHT22;52402;52.670;6.750;2022-10-17T17:08:32;14.60;99.90
60293;DHT22;52402;52.670;6.750;2022-10-17T17:10:58;14.50;99.90
60293;DHT22;52402;52.670;6.750;2022-10-17T17:13:24;14.50;99.90
60293;DHT22;52402;52.670;6.750;2022-10-17T17:15:50;14.50;99.90